Aviation Digital Data Service (ADDS)

Output produced by METARs form (1535 UTC 26 September 2016)
found at http://aviationweather.gov/adds/metars/
 
KLBE 261123Z 2612/2712 16005KT P6SM SCT250 
     FM261700 18008G16KT P6SM VCSH BKN090 
     FM261900 20010G22KT 6SM -SHRA VCTS OVC060CB 
     FM270100 28009G18KT P6SM VCSH OVC010 
     FM270300 26008KT P6SM BKN015 
     FM270900 26005KT P6SM SCT015